Time;durP1;ratioP1;P1;durP2;ratioP2;P2;SDS_P1;SDS_P2;PMS_P1;PMS_P2;Temp;Humidity;BMP_temperature;BMP_pressure;BME280_temperature;BME280_humidity;BME280_pressure;Samples;Min_cycle;Max_cycle;Signal;HPM_P1;HPM_P2
2023/03/02 00:01:54;;;;;;;45.80;31.70;;;2.20;99.90;;;;;;6131027;23;20017;-85
2023/03/02 00:05:28;;;;;;;;;;;;;;;;;;;;;
2023/03/02 00:08:26;;;;;;;38.92;30.35;;;2.60;99.90;;;;;;6112601;23;20446;-84
2023/03/02 00:10:56;;;;;;;39.55;28.83;;;3.20;99.90;;;;;;6103071;23;20025;-84
2023/03/02 00:16:22;;;;;;;42.28;30.17;;;3.10;99.90;;;;;;6106020;23;20027;-84
2023/03/02 00:18:57;;;;;;;44.00;31.17;;;2.90;99.90;;;;;;6102915;23;20017;-85
2023/03/02 00:21:44;;;;;;;45.65;32.40;;;2.70;99.90;;;;;;6103892;23;20017;-85
2023/03/02 00:24:23;;;;;;;50.42;32.72;;;2.90;99.90;;;;;;6128721;23;20347;-85
2023/03/02 00:26:52;;;;;;;46.30;33.20;;;2.50;99.90;;;;;;6100753;23;20757;-85
2023/03/02 00:29:26;;;;;;;48.05;33.17;;;2.70;99.90;;;;;;6103298;23;20048;-84
2023/03/02 00:31:55;;;;;;;48.78;32.83;;;2.70;99.90;;;;;;6102495;23;20018;-84
2023/03/02 00:34:24;;;;;;;48.67;32.30;;;3.20;99.90;;;;;;6103159;23;20017;-84
2023/03/02 00:36:50;;;;;;;46.10;31.58;;;2.70;99.90;;;;;;6103148;23;20014;-84
2023/03/02 00:42:30;;;;;;;48.47;33.22;;;3.10;99.90;;;;;;6128983;23;20025;-84
2023/03/02 00:45:32;;;;;;;49.55;34.58;;;2.50;99.90;;;;;;6105141;23;20017;-85
2023/03/02 00:48:23;;;;;;;46.00;32.08;;;2.50;99.90;;;;;;6129523;23;20457;-85
2023/03/02 00:50:48;;;;;;;50.38;34.33;;;2.40;99.90;;;;;;6104410;23;20092;-84
2023/03/02 00:53:24;;;;;;;47.47;31.02;;;2.40;99.90;;;;;;6128899;23;20053;-85
2023/03/02 00:56:09;;;;;;;45.85;32.30;;;2.30;99.90;;;;;;6105620;23;20056;-84
2023/03/02 00:58:51;;;;;;;57.53;36.97;;;2.30;99.90;;;;;;6130154;23;20350;-85
2023/03/02 01:01:57;;;;;;;53.83;33.55;;;2.30;99.90;;;;;;6105186;23;20013;-84
2023/03/02 01:04:45;;;;;;;53.40;34.38;;;2.80;99.90;;;;;;6103859;23;20014;-84
2023/03/02 01:07:24;;;;;;;55.33;35.70;;;2.30;99.90;;;;;;6128563;23;20022;-84
2023/03/02 01:09:59;;;;;;;62.90;35.97;;;2.30;99.90;;;;;;6105701;23;20053;-84
2023/03/02 01:12:37;;;;;;;;;;;;;;;;;;;;;
2023/03/02 01:15:04;;;;;;;53.85;34.58;;;2.00;99.90;;;;;;6129503;23;20017;-84
2023/03/02 01:17:30;;;;;;;53.17;35.50;;;2.40;99.90;;;;;;6105068;23;20053;-84
2023/03/02 01:19:56;;;;;;;55.33;35.05;;;2.70;99.90;;;;;;6105807;23;20013;-84
2023/03/02 01:22:25;;;;;;;52.90;35.45;;;2.50;99.90;;;;;;6104925;23;20354;-84
2023/03/02 01:25:03;;;;;;;55.00;35.40;;;2.40;99.90;;;;;;6105213;23;20084;-84
2023/03/02 01:27:32;;;;;;;52.13;34.85;;;2.70;99.90;;;;;;6105019;23;20020;-84
2023/03/02 01:30:21;;;;;;;54.35;36.40;;;2.30;99.90;;;;;;6104880;23;20323;-84
2023/03/02 01:33:21;;;;;;;57.90;33.70;;;2.30;99.90;;;;;;6106599;23;20048;-84
2023/03/02 01:35:55;;;;;;;56.53;36.83;;;2.10;99.90;;;;;;6105760;23;20093;-84
2023/03/02 01:38:27;;;;;;;56.97;36.97;;;2.30;99.90;;;;;;6106221;23;20013;-84
2023/03/02 01:44:46;;;;;;;52.88;34.22;;;2.20;99.90;;;;;;6129197;23;20048;-84
2023/03/02 01:47:38;;;;;;;55.90;35.88;;;2.20;99.90;;;;;;6105098;23;20389;-84
2023/03/02 01:50:25;;;;;;;56.75;36.38;;;3.00;99.90;;;;;;6105718;23;20022;-84
2023/03/02 01:53:04;;;;;;;;;;;;;;;;;;;;;
2023/03/02 01:55:37;;;;;;;55.13;33.00;;;2.30;99.90;;;;;;6128767;23;20049;-84
2023/03/02 01:58:17;;;;;;;53.30;34.25;;;2.30;99.90;;;;;;6104212;23;20048;-85
2023/03/02 02:00:52;;;;;;;58.25;37.20;;;3.20;99.90;;;;;;6104270;23;20013;-84
2023/03/02 02:03:31;;;;;;;57.20;37.00;;;2.30;99.90;;;;;;6104500;23;20053;-84
2023/03/02 02:06:25;;;;;;;59.40;34.38;;;2.30;99.90;;;;;;6104575;23;20390;-84
2023/03/02 02:08:56;;;;;;;60.22;36.80;;;2.10;99.90;;;;;;6103856;23;20013;-84
2023/03/02 02:11:25;;;;;;;58.72;36.92;;;2.40;99.90;;;;;;6103844;23;20029;-84
2023/03/02 02:14:00;;;;;;;59.22;37.10;;;2.40;99.90;;;;;;6103855;23;20025;-84
2023/03/02 02:16:31;;;;;;;58.22;36.45;;;2.10;99.90;;;;;;6104671;23;20025;-84
2023/03/02 02:19:31;;;;;;;65.53;36.53;;;2.40;99.90;;;;;;6104923;23;20009;-84
2023/03/02 02:22:00;;;;;;;66.25;38.97;;;2.00;99.90;;;;;;6104367;23;20072;-84
2023/03/02 02:24:52;;;;;;;65.07;38.10;;;2.00;99.90;;;;;;6104006;23;20017;-84
2023/03/02 02:27:28;;;;;;;64.43;38.40;;;2.30;99.90;;;;;;6113689;23;20036;-84
2023/03/02 02:30:13;;;;;;;67.38;39.40;;;2.00;99.90;;;;;;6128945;23;20482;-84
2023/03/02 02:32:50;;;;;;;67.93;38.05;;;2.00;99.90;;;;;;6104328;23;20057;-84
2023/03/02 02:35:27;;;;;;;67.38;38.58;;;1.20;99.90;;;;;;6104756;23;20020;-84
2023/03/02 02:38:19;;;;;;;70.72;39.45;;;2.50;99.90;;;;;;6104186;23;20009;-84
2023/03/02 02:41:08;;;;;;;69.72;38.05;;;1.90;99.90;;;;;;6104594;23;20013;-84
2023/03/02 02:43:37;;;;;;;77.93;39.25;;;1.90;99.90;;;;;;6105365;23;20454;-84
2023/03/02 02:46:04;;;;;;;71.55;38.88;;;2.20;99.90;;;;;;6104890;23;20042;-84
2023/03/02 02:48:31;;;;;;;80.18;39.63;;;2.30;99.90;;;;;;6103705;23;20100;-84
2023/03/02 02:51:00;;;;;;;74.43;39.53;;;2.00;99.90;;;;;;6103970;23;20527;-84
2023/03/02 02:53:43;;;;;;;74.03;38.25;;;2.50;99.90;;;;;;6103590;23;20014;-83
2023/03/02 02:56:16;;;;;;;77.60;41.38;;;1.90;99.90;;;;;;6103814;23;20354;-83
2023/03/02 02:58:50;;;;;;;77.65;40.38;;;1.90;99.90;;;;;;6128276;23;20401;-83
2023/03/02 03:01:24;;;;;;;66.10;37.63;;;1.70;99.90;;;;;;6103912;23;20021;-83
2023/03/02 03:03:59;;;;;;;79.15;39.35;;;2.00;99.90;;;;;;6103707;23;20022;-83
2023/03/02 03:06:40;;;;;;;73.80;39.58;;;2.10;99.90;;;;;;6104439;23;20327;-83
2023/03/02 03:09:08;;;;;;;82.88;40.53;;;3.40;99.90;;;;;;6103922;23;20096;-84
2023/03/02 03:11:38;;;;;;;74.70;39.25;;;1.90;99.90;;;;;;6103623;23;20070;-84
2023/03/02 03:14:33;;;;;;;77.32;40.60;;;2.40;99.90;;;;;;6103882;23;20017;-84
2023/03/02 03:17:02;;;;;;;81.63;41.45;;;2.80;99.90;;;;;;6079618;23;20024;-84
2023/03/02 03:19:32;;;;;;;72.22;38.53;;;1.90;99.90;;;;;;6104246;23;20070;-84
2023/03/02 03:22:01;;;;;;;79.97;38.35;;;1.90;99.90;;;;;;6103973;23;20370;-84
2023/03/02 03:24:32;;;;;;;84.95;39.90;;;2.70;99.90;;;;;;6103952;23;20021;-84
2023/03/02 03:27:04;;;;;;;74.75;38.38;;;2.40;99.90;;;;;;6104273;23;20056;-84
2023/03/02 03:29:30;;;;;;;72.47;36.47;;;1.80;99.90;;;;;;6104858;23;20013;-84
2023/03/02 03:32:06;;;;;;;73.07;37.60;;;2.50;99.90;;;;;;6103501;23;20338;-84
2023/03/02 03:34:46;;;;;;;102.72;39.70;;;1.80;99.90;;;;;;6104015;23;20536;-84
2023/03/02 03:41:09;;;;;;;165.02;42.20;;;2.00;99.90;;;;;;6128632;23;20017;-84
2023/03/02 03:43:57;;;;;;;;;;;;;;;;;;;;;
2023/03/02 03:46:41;;;;;;;212.43;44.85;;;1.50;99.90;;;;;;6128454;23;20022;-84
2023/03/02 03:49:19;;;;;;;247.55;47.15;;;1.30;99.90;;;;;;6103615;23;20013;-84
2023/03/02 03:55:49;;;;;;;248.43;47.05;;;1.30;99.90;;;;;;6128652;23;20134;-84
2023/03/02 03:58:34;;;;;;;299.08;49.97;;;1.90;99.90;;;;;;6102630;23;20014;-83
2023/03/02 04:01:08;;;;;;;262.63;48.60;;;1.40;99.90;;;;;;6102202;23;20658;-84
2023/03/02 04:07:33;;;;;;;197.27;49.10;;;1.40;99.90;;;;;;6114116;23;20052;-84
2023/03/02 04:13:31;;;;;;;164.10;42.72;;;1.40;99.90;;;;;;6137490;23;20021;-83
2023/03/02 04:16:47;;;;;;;188.05;42.05;;;1.50;99.90;;;;;;6104939;23;20116;-83
2023/03/02 04:19:21;;;;;;;283.48;44.83;;;1.70;99.90;;;;;;6103162;23;20454;-84
2023/03/02 04:21:52;;;;;;;270.90;41.28;;;1.80;99.90;;;;;;6103477;23;20018;-84
2023/03/02 04:25:43;;;;;;;256.20;41.85;;;1.30;99.90;;;;;;6105093;23;20081;-84
2023/03/02 04:28:21;;;;;;;329.67;46.17;;;2.20;99.90;;;;;;6116728;23;20023;-83
2023/03/02 04:31:15;;;;;;;321.52;46.20;;;1.20;99.90;;;;;;6153812;23;20025;-84
2023/03/02 04:37:00;;;;;;;287.20;46.78;;;1.10;99.90;;;;;;6126957;23;20484;-83
2023/03/02 04:39:56;;;;;;;;;;;;;;;;;;;;;
2023/03/02 04:46:36;;;;;;;;;;;;;;;;;;;;;
2023/03/02 04:49:48;;;;;;;239.07;50.22;;;0.90;99.90;;;;;;6153362;23;20058;-84
2023/03/02 04:52:49;;;;;;;277.65;48.90;;;1.40;99.90;;;;;;6101623;23;20334;-83
2023/03/02 04:55:38;;;;;;;310.83;51.40;;;1.20;99.90;;;;;;6103175;23;20017;-83
2023/03/02 04:58:19;;;;;;;302.15;49.95;;;1.10;99.90;;;;;;6108867;23;20089;-83
2023/03/02 05:01:06;;;;;;;229.77;47.58;;;1.20;99.90;;;;;;6103406;23;20013;-83
2023/03/02 05:03:55;;;;;;;264.15;47.67;;;1.10;99.90;;;;;;6103242;23;20528;-83
2023/03/02 05:06:40;;;;;;;277.30;49.15;;;1.20;99.90;;;;;;6102436;23;20021;-83
2023/03/02 05:09:11;;;;;;;225.38;45.45;;;2.10;99.90;;;;;;6095338;23;20024;-83
2023/03/02 05:11:47;;;;;;;279.27;47.28;;;1.20;99.90;;;;;;6102644;23;20050;-83
2023/03/02 05:14:55;;;;;;;329.52;50.33;;;1.50;99.90;;;;;;6104098;23;20028;-83
2023/03/02 05:20:56;;;;;;;403.42;54.50;;;0.20;99.90;;;;;;5981704;23;20031;-83
2023/03/02 05:23:44;;;;;;;242.10;45.08;;;1.40;99.90;;;;;;5959851;23;20405;-83
2023/03/02 05:30:36;;;;;;;;;;;;;;;;;;;;;
2023/03/02 05:33:50;;;;;;;260.42;49.25;;;2.50;99.90;;;;;;5983973;23;20020;-84
2023/03/02 05:37:38;;;;;;;347.40;55.03;;;2.00;99.90;;;;;;6119661;23;20450;-84
2023/03/02 05:41:11;;;;;;;;;;;;;;;;;;;;;
2023/03/02 05:44:18;;;;;;;394.67;52.95;;;1.20;99.90;;;;;;6056938;23;20032;-84
2023/03/02 05:46:58;;;;;;;278.67;45.60;;;1.20;99.90;;;;;;6129896;23;20025;-83
2023/03/02 05:49:39;;;;;;;303.05;51.00;;;1.10;99.90;;;;;;6105837;23;20076;-84
2023/03/02 05:53:09;;;;;;;;;;;;;;;;;;;;;
2023/03/02 05:56:26;;;;;;;;;;;;;;;;;;;;;
2023/03/02 06:02:53;;;;;;;251.35;47.40;;;1.00;99.90;;;;;;6127251;23;20021;-83
2023/03/02 06:08:47;;;;;;;382.48;53.92;;;1.60;99.90;;;;;;6128680;23;20017;-83
2023/03/02 06:15:41;;;;;;;320.15;50.25;;;1.00;99.90;;;;;;6124099;23;20022;-84
2023/03/02 06:19:07;;;;;;;252.98;47.92;;;1.00;99.90;;;;;;6129045;23;20048;-84
2023/03/02 06:22:18;;;;;;;;;;;;;;;;;;;;;
2023/03/02 06:29:05;;;;;;;394.00;52.75;;;0.70;99.90;;;;;;5999202;23;20039;-84
2023/03/02 06:32:05;;;;;;;;;;;;;;;;;;;;;
2023/03/02 06:38:47;;;;;;;329.77;53.38;;;1.10;99.90;;;;;;6110801;23;20029;-84
2023/03/02 06:41:59;;;;;;;346.02;54.47;;;1.60;99.90;;;;;;6080778;23;20013;-84
2023/03/02 06:44:50;;;;;;;330.15;49.10;;;1.10;99.90;;;;;;6100051;23;20022;-84
2023/03/02 06:48:11;;;;;;;440.55;57.00;;;1.00;99.90;;;;;;6106743;23;20148;-85
2023/03/02 06:55:43;;;;;;;;;;;;;;;;;;;;;
2023/03/02 06:58:56;;;;;;;443.65;53.30;;;1.50;99.90;;;;;;5982619;23;20019;-84
2023/03/02 07:05:49;;;;;;;;;;;;;;;;;;;;;
2023/03/02 07:09:14;;;;;;;;;;;;;;;;;;;;;
2023/03/02 07:26:07;;;;;;;;;;;;;;;;;;;;;
2023/03/02 07:29:00;;;;;;;;;;;;;;;;;;;;;
2023/03/02 07:32:05;;;;;;;;;;;;;;;;;;;;;
2023/03/02 07:38:10;;;;;;;;;;;1.00;99.90;;;;;;6097418;23;20126;-84
2023/03/02 07:40:43;;;;;;;201.82;45.17;;;0.90;99.90;;;;;;6104146;23;20099;-84
2023/03/02 07:43:34;;;;;;;;;;;;;;;;;;;;;
2023/03/02 07:46:14;;;;;;;;;;;;;;;;;;;;;
2023/03/02 07:48:40;;;;;;;204.00;42.83;;;1.10;99.90;;;;;;6128211;23;20096;-85
2023/03/02 07:51:07;;;;;;;201.45;42.42;;;2.00;99.90;;;;;;6102373;23;20387;-85
2023/03/02 07:53:35;;;;;;;142.90;41.67;;;1.00;99.90;;;;;;6102735;23;20462;-84
2023/03/02 07:56:11;;;;;;;182.60;45.25;;;1.20;99.90;;;;;;6103662;23;20022;-84
2023/03/02 07:59:00;;;;;;;152.38;41.75;;;1.10;99.90;;;;;;6128189;23;20068;-85
2023/03/02 08:02:15;;;;;;;145.40;42.55;;;1.10;99.90;;;;;;6103337;23;20049;-84
2023/03/02 08:05:15;;;;;;;166.35;47.00;;;1.20;99.90;;;;;;6104793;23;20014;-85
2023/03/02 08:08:18;;;;;;;277.23;53.17;;;1.10;99.90;;;;;;6104054;23;20048;-84
2023/03/02 08:11:09;;;;;;;190.35;45.00;;;1.90;99.90;;;;;;6149896;23;20013;-84
2023/03/02 08:13:39;;;;;;;149.32;41.65;;;1.40;99.90;;;;;;6103079;23;20028;-85
2023/03/02 08:16:41;;;;;;;148.25;40.70;;;1.70;99.90;;;;;;6100648;23;20017;-84
2023/03/02 08:19:39;;;;;;;198.40;44.58;;;2.20;99.90;;;;;;6103814;23;20021;-84
2023/03/02 08:22:35;;;;;;;187.55;40.55;;;1.40;99.90;;;;;;6130340;23;20053;-85
2023/03/02 08:25:07;;;;;;;219.68;41.25;;;2.00;99.90;;;;;;6103801;23;20013;-84
2023/03/02 08:27:39;;;;;;;143.20;37.33;;;0.30;99.90;;;;;;6103658;23;20646;-83
2023/03/02 08:30:07;;;;;;;200.45;40.97;;;1.40;99.90;;;;;;6102718;23;20379;-83
2023/03/02 08:32:36;;;;;;;129.65;36.50;;;1.30;99.90;;;;;;6102722;23;20055;-83
2023/03/02 08:35:17;;;;;;;141.98;37.72;;;1.50;99.90;;;;;;6103934;23;20021;-84
2023/03/02 08:41:29;;;;;;;120.60;38.50;;;1.40;99.90;;;;;;6126895;23;20018;-83
2023/03/02 08:44:41;;;;;;;120.82;37.15;;;1.30;99.90;;;;;;5967658;23;20024;-83
2023/03/02 08:51:14;;;;;;;109.40;38.88;;;1.40;99.90;;;;;;6116348;23;20458;-83
2023/03/02 08:53:49;;;;;;;114.90;40.45;;;2.40;99.90;;;;;;6124990;23;20009;-83
2023/03/02 08:56:35;;;;;;;;;;;;;;;;;;;;;
2023/03/02 08:59:26;;;;;;;86.53;34.63;;;1.70;99.90;;;;;;6127326;23;20112;-83
2023/03/02 09:07:16;;;;;;;;;;;;;;;;;;;;;
2023/03/02 09:10:18;;;;;;;73.82;35.65;;;1.20;99.90;;;;;;6124661;23;20021;-82
2023/03/02 09:17:14;;;;;;;;;;;;;;;;;;;;;
2023/03/02 09:26:32;;;;;;;96.63;33.92;;;1.40;99.90;;;;;;6063182;23;20026;-79
2023/03/02 09:29:05;;;;;;;93.97;36.67;;;1.70;99.90;;;;;;6045259;23;20031;-80
2023/03/02 09:31:46;;;;;;;87.57;35.50;;;2.60;99.90;;;;;;6044813;23;20018;-82
2023/03/02 09:34:35;;;;;;;80.25;34.85;;;2.80;99.90;;;;;;6045894;23;20050;-82
2023/03/02 09:37:27;;;;;;;80.70;36.35;;;1.90;99.90;;;;;;6044773;23;20061;-83
2023/03/02 09:40:25;;;;;;;86.65;38.38;;;2.90;99.90;;;;;;6090879;23;20017;-82
2023/03/02 09:44:08;;;;;;;100.10;40.25;;;2.00;99.90;;;;;;6104651;23;20446;-82
2023/03/02 09:50:38;;;;;;;;;;;;;;;;;;;;;
2023/03/02 09:54:09;;;;;;;78.35;32.70;;;2.20;99.90;;;;;;6128695;23;20410;-82
2023/03/02 09:57:38;;;;;;;83.18;34.88;;;2.10;99.90;;;;;;6127447;23;20055;-83
2023/03/02 10:00:42;;;;;;;76.85;33.22;;;2.10;99.90;;;;;;6084745;23;20348;-82
2023/03/02 10:03:59;;;;;;;85.00;34.95;;;2.80;99.90;;;;;;6018890;23;20049;-82
2023/03/02 10:07:10;;;;;;;70.00;34.10;;;2.10;99.90;;;;;;6098081;23;20783;-82
2023/03/02 10:09:44;;;;;;;59.97;33.25;;;2.40;99.90;;;;;;6104660;23;20014;-82
2023/03/02 10:12:47;;;;;;;51.72;31.13;;;2.40;99.90;;;;;;6102841;23;20056;-82
2023/03/02 10:19:52;;;;;;;;;;;;;;;;;;;;;
2023/03/02 10:23:45;;;;;;;;;;;;;;;;;;;;;
2023/03/02 10:27:11;;;;;;;64.75;30.98;;;2.50;99.90;;;;;;5977990;23;20069;-83
2023/03/02 10:30:17;;;;;;;45.42;28.52;;;2.50;99.90;;;;;;6103208;23;20024;-82
2023/03/02 10:34:06;;;;;;;;;;;;;;;;;;;;;
2023/03/02 10:37:10;;;;;;;40.22;26.80;;;2.70;99.90;;;;;;6127622;23;20026;-83
2023/03/02 10:43:19;;;;;;;47.25;29.38;;;2.80;99.90;;;;;;5981578;23;20019;-82
2023/03/02 10:46:14;;;;;;;40.78;27.48;;;2.70;99.90;;;;;;6125730;23;20405;-83
2023/03/02 10:49:02;;;;;;;39.88;26.20;;;3.10;99.90;;;;;;6098849;23;20025;-83
2023/03/02 10:52:19;;;;;;;36.50;25.42;;;3.20;99.90;;;;;;6130397;23;20374;-82
2023/03/02 10:56:03;;;;;;;;;;;;;;;;;;;;;
2023/03/02 11:03:35;;;;;;;;;;;;;;;;;;;;;
2023/03/02 11:05:52;;;;;;;34.00;24.67;;;3.20;99.90;;;;;;6100111;23;20017;-82
2023/03/02 11:08:43;;;;;;;34.35;25.33;;;3.70;99.90;;;;;;6102470;23;20057;-82
2023/03/02 11:15:54;;;;;;;;;;;;;;;;;;;;;
2023/03/02 11:19:16;;;;;;;32.53;24.60;;;2.90;99.90;;;;;;6126667;23;20025;-81
2023/03/02 11:21:56;;;;;;;32.83;23.55;;;3.50;99.90;;;;;;6102512;23;20022;-82
2023/03/02 11:25:03;;;;;;;;;;;;;;;;;;;;;
2023/03/02 11:28:04;;;;;;;29.60;23.10;;;3.60;99.90;;;;;;6126428;23;20017;-82
2023/03/02 11:31:14;;;;;;;;;;;;;;;;;;;;;
2023/03/02 11:34:25;;;;;;;33.25;24.45;;;3.60;99.90;;;;;;6127029;23;20010;-82
2023/03/02 11:37:23;;;;;;;29.50;22.50;;;3.60;99.90;;;;;;6102323;23;20022;-81
2023/03/02 11:40:08;;;;;;;28.90;24.08;;;3.50;99.90;;;;;;6102536;23;20131;-82
2023/03/02 11:43:14;;;;;;;;;;;;;;;;;;;;;
2023/03/02 11:46:01;;;;;;;30.10;23.40;;;3.50;99.90;;;;;;6126498;23;20013;-82
2023/03/02 11:48:47;;;;;;;30.83;24.30;;;3.90;99.90;;;;;;6102093;23;20116;-81
2023/03/02 11:51:40;;;;;;;32.38;24.27;;;3.60;99.90;;;;;;6102753;23;20009;-81
2023/03/02 11:54:37;;;;;;;28.90;24.02;;;3.90;99.90;;;;;;6125635;23;20021;-81
2023/03/02 12:00:32;;;;;;;35.40;24.52;;;3.80;99.90;;;;;;6126133;23;20022;-82
2023/03/02 12:03:43;;;;;;;32.03;24.08;;;3.80;99.90;;;;;;6103174;23;20018;-81
2023/03/02 12:06:35;;;;;;;29.38;22.58;;;3.90;99.90;;;;;;5962905;23;20119;-82
2023/03/02 12:09:41;;;;;;;28.10;21.67;;;4.80;99.90;;;;;;6105704;23;20013;-82
2023/03/02 12:13:07;;;;;;;29.40;22.88;;;4.60;99.90;;;;;;6128804;23;20047;-82
2023/03/02 12:15:41;;;;;;;26.92;21.08;;;3.90;99.90;;;;;;5980919;23;20504;-82
2023/03/02 12:21:46;;;;;;;28.08;22.10;;;4.90;99.90;;;;;;6104099;23;20024;-82
2023/03/02 12:24:44;;;;;;;;;;;;;;;;;;;;;
2023/03/02 12:28:19;;;;;;;28.95;23.48;;;5.40;99.90;;;;;;6125641;23;20382;-82
2023/03/02 12:31:48;;;;;;;26.10;21.58;;;4.70;99.90;;;;;;5977088;23;20030;-82
2023/03/02 12:35:02;;;;;;;25.35;20.27;;;4.10;99.90;;;;;;5890608;23;20020;-82
2023/03/02 12:38:06;;;;;;;26.23;20.83;;;4.80;99.90;;;;;;6025644;23;20026;-82
2023/03/02 12:41:03;;;;;;;25.20;19.48;;;4.80;99.90;;;;;;6093584;23;20036;-82
2023/03/02 12:43:50;;;;;;;;;;;4.60;99.90;;;;;;6103051;23;20049;-82
2023/03/02 12:49:41;;;;;;;;;;;;;;;;;;;;;
2023/03/02 13:04:15;;;;;;;;;;;;;;;;;;;;;
2023/03/02 13:21:42;;;;;;;14.32;12.27;;;6.00;99.90;;;;;;6036727;23;20067;-82
2023/03/02 13:25:00;;;;;;;14.77;12.35;;;6.00;99.90;;;;;;6067575;23;20461;-83
2023/03/02 13:35:51;;;;;;;;;;;;;;;;;;;;;
2023/03/02 13:39:02;;;;;;;15.25;12.35;;;5.50;99.90;;;;;;6095772;23;20018;-82
2023/03/02 13:42:00;;;;;;;17.00;12.48;;;6.40;99.90;;;;;;6066573;23;20022;-82
2023/03/02 13:45:16;;;;;;;15.15;12.82;;;5.90;99.90;;;;;;6041304;23;20011;-82
2023/03/02 13:51:44;;;;;;;15.18;12.05;;;5.80;99.90;;;;;;6106150;23;20017;-82
2023/03/02 13:54:49;;;;;;;14.18;12.20;;;6.10;99.90;;;;;;6104356;23;20020;-82
2023/03/02 13:57:52;;;;;;;;;;;;;;;;;;;;;
2023/03/02 14:00:52;;;;;;;13.73;12.00;;;5.90;99.90;;;;;;6126313;23;20092;-82
2023/03/02 14:03:32;;;;;;;11.43;9.85;;;5.80;99.90;;;;;;6129367;23;20045;-82
2023/03/02 14:06:09;;;;;;;;;;;;;;;;;;;;;
2023/03/02 14:08:49;;;;;;;12.65;11.07;;;6.00;99.90;;;;;;6128061;23;20017;-82
2023/03/02 14:11:19;;;;;;;16.50;11.93;;;6.10;99.90;;;;;;6102999;23;20021;-82
2023/03/02 14:14:14;;;;;;;14.60;11.65;;;5.90;99.90;;;;;;6103752;23;20021;-82
2023/03/02 14:20:36;;;;;;;14.60;11.93;;;6.20;99.90;;;;;;6126403;23;20397;-82
2023/03/02 14:23:51;;;;;;;13.02;10.93;;;5.50;99.90;;;;;;6102598;23;20028;-82
2023/03/02 14:26:45;;;;;;;15.15;12.35;;;6.10;99.90;;;;;;6085618;23;20025;-82
2023/03/02 14:30:00;;;;;;;12.90;11.57;;;6.60;99.90;;;;;;6104602;23;20017;-82
2023/03/02 14:32:38;;;;;;;14.27;11.90;;;6.10;99.90;;;;;;6105297;23;20017;-81
2023/03/02 14:38:29;;;;;;;14.52;11.32;;;6.30;99.90;;;;;;6101621;23;20027;-82
2023/03/02 14:41:40;;;;;;;;;;;;;;;;;;;;;
2023/03/02 14:44:31;;;;;;;12.05;10.40;;;6.50;99.90;;;;;;6127079;23;20021;-82
2023/03/02 14:47:18;;;;;;;;;;;;;;;;;;;;;
2023/03/02 14:49:54;;;;;;;12.93;10.93;;;6.40;99.90;;;;;;6127980;23;20025;-81
2023/03/02 14:52:48;;;;;;;12.32;11.02;;;6.90;99.90;;;;;;6103324;23;20045;-82
2023/03/02 14:55:24;;;;;;;11.98;10.30;;;6.30;99.90;;;;;;6103518;23;20018;-82
2023/03/02 14:57:57;;;;;;;11.30;9.90;;;6.80;99.90;;;;;;6102869;23;20061;-81
2023/03/02 15:00:37;;;;;;;11.73;10.55;;;6.50;99.90;;;;;;6127207;23;20018;-82
2023/03/02 15:03:24;;;;;;;13.15;10.98;;;5.50;99.90;;;;;;6102132;23;20021;-82
2023/03/02 15:05:54;;;;;;;12.63;10.82;;;6.20;99.90;;;;;;6102042;23;20017;-82
2023/03/02 15:08:37;;;;;;;11.35;10.15;;;5.90;99.90;;;;;;6129980;23;20452;-82
2023/03/02 15:11:27;;;;;;;;;;;;;;;;;;;;;
2023/03/02 15:13:55;;;;;;;10.63;9.50;;;6.30;99.90;;;;;;6126335;23;20804;-81
2023/03/02 15:16:31;;;;;;;11.13;9.90;;;6.30;99.90;;;;;;6102250;23;20025;-81
2023/03/02 15:19:15;;;;;;;11.43;10.23;;;6.40;99.90;;;;;;6127500;23;20398;-82
2023/03/02 15:22:00;;;;;;;13.52;11.20;;;6.20;99.90;;;;;;6102342;23;20028;-82
2023/03/02 15:24:35;;;;;;;11.35;10.13;;;7.10;99.90;;;;;;6099467;23;20113;-82
2023/03/02 15:27:01;;;;;;;14.90;11.43;;;6.50;99.90;;;;;;6103133;23;20596;-82
2023/03/02 15:30:05;;;;;;;;;;;;;;;;;;;;;
2023/03/02 15:32:37;;;;;;;12.32;11.02;;;6.20;99.90;;;;;;6127695;23;20052;-82
2023/03/02 15:35:44;;;;;;;13.75;11.32;;;6.70;99.90;;;;;;6103116;23;20021;-82
2023/03/02 15:38:18;;;;;;;14.80;12.20;;;6.50;99.90;;;;;;6103115;23;20018;-82
2023/03/02 15:40:50;;;;;;;14.02;11.88;;;5.90;99.90;;;;;;6103673;23;20055;-82
2023/03/02 15:43:40;;;;;;;13.90;12.50;;;6.10;99.90;;;;;;6130416;23;20057;-82
2023/03/02 15:46:25;;;;;;;14.38;12.75;;;5.90;99.90;;;;;;6127937;23;20021;-82
2023/03/02 15:49:06;;;;;;;15.73;11.70;;;6.10;99.90;;;;;;6103540;23;20021;-82
2023/03/02 15:51:44;;;;;;;12.02;10.82;;;6.20;99.90;;;;;;6103386;23;20088;-82
2023/03/02 15:54:17;;;;;;;12.05;10.75;;;6.40;99.90;;;;;;6126891;23;20418;-83
2023/03/02 15:56:52;;;;;;;10.95;9.77;;;6.50;99.90;;;;;;6105684;23;20108;-82
2023/03/02 15:59:29;;;;;;;11.95;10.75;;;6.20;99.90;;;;;;6104559;23;20058;-82
2023/03/02 16:02:09;;;;;;;13.07;11.10;;;6.30;99.90;;;;;;6103982;23;20025;-82
2023/03/02 16:04:46;;;;;;;10.77;9.68;;;6.20;99.90;;;;;;6103904;23;20045;-82
2023/03/02 16:07:19;;;;;;;18.65;10.70;;;6.10;99.90;;;;;;6103832;23;20021;-83
2023/03/02 16:09:52;;;;;;;11.57;10.35;;;6.10;99.90;;;;;;6127635;23;20018;-82
2023/03/02 16:12:27;;;;;;;10.38;9.20;;;6.20;99.90;;;;;;6103827;23;20017;-82
2023/03/02 16:15:01;;;;;;;12.35;10.10;;;6.20;99.90;;;;;;6102551;23;20283;-82
2023/03/02 16:17:28;;;;;;;10.90;8.98;;;5.80;99.90;;;;;;6103798;23;20454;-82
2023/03/02 16:20:06;;;;;;;11.20;9.45;;;6.40;99.90;;;;;;6104407;23;20020;-82
2023/03/02 16:22:36;;;;;;;11.15;9.70;;;5.70;99.90;;;;;;6104742;23;20043;-82
2023/03/02 16:25:08;;;;;;;10.60;9.35;;;6.20;99.90;;;;;;6103326;23;20010;-82
2023/03/02 16:27:45;;;;;;;9.32;8.43;;;6.40;99.90;;;;;;6102449;23;20314;-82
2023/03/02 16:30:17;;;;;;;10.85;9.57;;;6.00;99.90;;;;;;6104408;23;20017;-81
2023/03/02 16:32:45;;;;;;;11.32;8.98;;;6.00;99.90;;;;;;6102829;23;20117;-81
2023/03/02 16:35:14;;;;;;;10.75;9.65;;;6.00;99.90;;;;;;6103047;23;20025;-82
2023/03/02 16:37:43;;;;;;;9.98;8.98;;;6.00;99.90;;;;;;6079106;23;20099;-82
2023/03/02 16:40:14;;;;;;;9.55;8.43;;;6.10;99.90;;;;;;6103535;23;20013;-82
2023/03/02 16:42:49;;;;;;;10.68;8.93;;;5.50;99.90;;;;;;6103869;23;20024;-82
2023/03/02 16:45:25;;;;;;;10.13;8.90;;;6.00;99.90;;;;;;6104501;23;20069;-82
2023/03/02 16:47:53;;;;;;;10.63;9.52;;;5.60;99.90;;;;;;6103720;23;20086;-82
2023/03/02 16:50:25;;;;;;;11.10;9.60;;;6.00;99.90;;;;;;6103893;23;20096;-81
2023/03/02 16:52:53;;;;;;;10.43;9.07;;;5.70;99.90;;;;;;6103328;23;20458;-82
2023/03/02 16:55:22;;;;;;;11.40;10.20;;;5.60;99.90;;;;;;6103646;23;20024;-82
2023/03/02 16:57:50;;;;;;;11.50;10.05;;;5.40;99.90;;;;;;6103148;23;20013;-82
2023/03/02 17:00:19;;;;;;;12.00;10.38;;;5.30;99.90;;;;;;6102440;23;20014;-82
2023/03/02 17:02:46;;;;;;;10.60;9.50;;;5.20;99.90;;;;;;6103375;23;20018;-82
2023/03/02 17:05:21;;;;;;;11.52;10.13;;;4.70;99.90;;;;;;6103590;23;20045;-82
2023/03/02 17:07:57;;;;;;;10.43;9.25;;;4.80;99.90;;;;;;6103057;23;20045;-82
2023/03/02 17:10:30;;;;;;;11.88;9.57;;;5.20;99.90;;;;;;6103164;23;20391;-82
2023/03/02 17:13:15;;;;;;;;;;;;;;;;;;;;;
2023/03/02 17:15:45;;;;;;;12.27;10.30;;;4.10;99.90;;;;;;6128037;23;20013;-82
2023/03/02 17:18:11;;;;;;;14.98;12.82;;;4.80;99.90;;;;;;6128613;23;20022;-82
2023/03/02 17:20:38;;;;;;;16.50;12.95;;;4.80;99.90;;;;;;6103228;23;20020;-82
2023/03/02 17:23:16;;;;;;;15.43;13.25;;;5.10;99.90;;;;;;6104386;23;20342;-82
2023/03/02 17:25:43;;;;;;;15.57;12.57;;;4.90;99.90;;;;;;6105713;23;20449;-82
2023/03/02 17:28:19;;;;;;;13.48;11.60;;;4.60;99.90;;;;;;6105517;23;20040;-82
2023/03/02 17:30:55;;;;;;;12.57;10.57;;;4.20;99.90;;;;;;6103664;23;20024;-82
2023/03/02 17:33:28;;;;;;;12.05;10.73;;;4.50;99.90;;;;;;6104294;23;20020;-81
2023/03/02 17:35:54;;;;;;;12.05;10.73;;;4.60;99.90;;;;;;6104085;23;20021;-81
2023/03/02 17:38:24;;;;;;;13.25;11.82;;;4.40;99.90;;;;;;6104685;23;20026;-81
2023/03/02 17:40:53;;;;;;;12.35;11.05;;;4.40;99.90;;;;;;6101957;23;20017;-82
2023/03/02 17:43:20;;;;;;;16.00;12.90;;;5.20;99.90;;;;;;6103524;23;20427;-82
2023/03/02 17:45:47;;;;;;;16.35;12.10;;;4.50;99.90;;;;;;6104664;23;20399;-82
2023/03/02 17:48:14;;;;;;;16.40;12.30;;;4.40;99.90;;;;;;6105296;23;20021;-82
2023/03/02 17:50:51;;;;;;;14.65;12.75;;;3.70;99.90;;;;;;6105030;23;20033;-82
2023/03/02 17:53:21;;;;;;;16.02;12.13;;;4.10;99.90;;;;;;6105967;23;20010;-82
2023/03/02 17:55:54;;;;;;;16.88;13.75;;;4.40;99.90;;;;;;6104964;23;20017;-81
2023/03/02 17:58:26;;;;;;;18.95;13.93;;;5.20;99.90;;;;;;6105596;23;20114;-82
2023/03/02 18:00:53;;;;;;;16.05;14.13;;;3.80;99.90;;;;;;6104878;23;20028;-82
2023/03/02 18:03:20;;;;;;;16.08;13.98;;;3.80;99.90;;;;;;6104432;23;20013;-81
2023/03/02 18:05:51;;;;;;;16.50;14.75;;;4.60;99.90;;;;;;6104686;23;20021;-82
2023/03/02 18:08:23;;;;;;;17.08;15.27;;;4.10;99.90;;;;;;6129510;23;20087;-82
2023/03/02 18:10:52;;;;;;;16.85;14.55;;;4.60;99.90;;;;;;6104187;23;20474;-82
2023/03/02 18:13:24;;;;;;;16.42;14.48;;;4.50;99.90;;;;;;6104783;23;20024;-82